sensor_id;sensor_type;location;lat;lon;timestamp;P1;durP1;ratioP1;P2;durP2;ratioP2
43560;SDS011;32305;46.410;17.394;2022-10-31T00:01:17;4.53;;;4.13;;
43560;SDS011;32305;46.410;17.394;2022-10-31T00:03:46;4.22;;;3.83;;
43560;SDS011;32305;46.410;17.394;2022-10-31T00:06:14;4.82;;;4.07;;
43560;SDS011;32305;46.410;17.394;2022-10-31T00:11:12;4.85;;;4.35;;
43560;SDS011;32305;46.410;17.394;2022-10-31T00:13:39;4.38;;;3.97;;
43560;SDS011;32305;46.410;17.394;2022-10-31T00:16:12;4.32;;;4.00;;
43560;SDS011;32305;46.410;17.394;2022-10-31T00:18:44;4.25;;;3.85;;
43560;SDS011;32305;46.410;17.394;2022-10-31T00:21:15;4.80;;;4.25;;
43560;SDS011;32305;46.410;17.394;2022-10-31T00:23:43;3.95;;;3.53;;
43560;SDS011;32305;46.410;17.394;2022-10-31T00:26:10;3.85;;;3.55;;
43560;SDS011;32305;46.410;17.394;2022-10-31T00:28:37;4.18;;;3.78;;
43560;SDS011;32305;46.410;17.394;2022-10-31T00:31:05;4.80;;;3.78;;
43560;SDS011;32305;46.410;17.394;2022-10-31T00:33:37;4.53;;;4.13;;
43560;SDS011;32305;46.410;17.394;2022-10-31T00:36:06;4.10;;;3.70;;
43560;SDS011;32305;46.410;17.394;2022-10-31T00:38:34;4.95;;;4.07;;
43560;SDS011;32305;46.410;17.394;2022-10-31T00:41:01;3.60;;;3.30;;
43560;SDS011;32305;46.410;17.394;2022-10-31T00:43:28;4.07;;;3.70;;
43560;SDS011;32305;46.410;17.394;2022-10-31T00:45:55;3.70;;;3.40;;
43560;SDS011;32305;46.410;17.394;2022-10-31T00:48:22;4.00;;;3.65;;
43560;SDS011;32305;46.410;17.394;2022-10-31T00:50:49;4.28;;;3.88;;
43560;SDS011;32305;46.410;17.394;2022-10-31T00:53:16;4.25;;;3.85;;
43560;SDS011;32305;46.410;17.394;2022-10-31T00:55:43;3.55;;;3.25;;
43560;SDS011;32305;46.410;17.394;2022-10-31T00:58:11;3.88;;;3.53;;
43560;SDS011;32305;46.410;17.394;2022-10-31T01:00:43;3.72;;;3.42;;
43560;SDS011;32305;46.410;17.394;2022-10-31T01:03:16;3.83;;;3.40;;
43560;SDS011;32305;46.410;17.394;2022-10-31T01:05:43;3.83;;;3.53;;
43560;SDS011;32305;46.410;17.394;2022-10-31T01:08:10;4.30;;;3.90;;
43560;SDS011;32305;46.410;17.394;2022-10-31T01:10:37;4.28;;;3.85;;
43560;SDS011;32305;46.410;17.394;2022-10-31T01:13:04;3.95;;;3.55;;
43560;SDS011;32305;46.410;17.394;2022-10-31T01:15:31;4.07;;;3.67;;
43560;SDS011;32305;46.410;17.394;2022-10-31T01:17:58;4.03;;;3.70;;
43560;SDS011;32305;46.410;17.394;2022-10-31T01:20:26;4.00;;;3.65;;
43560;SDS011;32305;46.410;17.394;2022-10-31T01:22:53;3.90;;;3.60;;
43560;SDS011;32305;46.410;17.394;2022-10-31T01:25:20;3.13;;;2.92;;
43560;SDS011;32305;46.410;17.394;2022-10-31T01:27:47;3.83;;;3.47;;
43560;SDS011;32305;46.410;17.394;2022-10-31T01:30:14;4.07;;;3.67;;
43560;SDS011;32305;46.410;17.394;2022-10-31T01:32:41;3.63;;;3.33;;
43560;SDS011;32305;46.410;17.394;2022-10-31T01:35:08;3.30;;;2.97;;
43560;SDS011;32305;46.410;17.394;2022-10-31T01:37:35;3.83;;;3.40;;
43560;SDS011;32305;46.410;17.394;2022-10-31T01:40:02;3.75;;;3.45;;
43560;SDS011;32305;46.410;17.394;2022-10-31T01:42:29;3.78;;;3.47;;
43560;SDS011;32305;46.410;17.394;2022-10-31T01:44:58;4.00;;;3.60;;
43560;SDS011;32305;46.410;17.394;2022-10-31T01:47:30;3.88;;;3.58;;
43560;SDS011;32305;46.410;17.394;2022-10-31T01:50:13;3.47;;;3.13;;
43560;SDS011;32305;46.410;17.394;2022-10-31T01:52:54;3.85;;;3.55;;
43560;SDS011;32305;46.410;17.394;2022-10-31T01:55:26;3.45;;;3.22;;
43560;SDS011;32305;46.410;17.394;2022-10-31T01:58:01;3.25;;;3.00;;
43560;SDS011;32305;46.410;17.394;2022-10-31T02:00:33;3.40;;;3.10;;
43560;SDS011;32305;46.410;17.394;2022-10-31T02:03:00;3.63;;;3.30;;
43560;SDS011;32305;46.410;17.394;2022-10-31T02:05:28;3.85;;;3.55;;
43560;SDS011;32305;46.410;17.394;2022-10-31T02:07:58;3.67;;;3.35;;
43560;SDS011;32305;46.410;17.394;2022-10-31T02:10:37;3.53;;;3.22;;
43560;SDS011;32305;46.410;17.394;2022-10-31T02:13:05;3.70;;;3.40;;
43560;SDS011;32305;46.410;17.394;2022-10-31T02:15:33;3.90;;;3.40;;
43560;SDS011;32305;46.410;17.394;2022-10-31T02:18:03;3.88;;;3.47;;
43560;SDS011;32305;46.410;17.394;2022-10-31T02:20:39;3.33;;;3.03;;
43560;SDS011;32305;46.410;17.394;2022-10-31T02:23:42;3.72;;;3.42;;
43560;SDS011;32305;46.410;17.394;2022-10-31T02:26:45;4.07;;;3.70;;
43560;SDS011;32305;46.410;17.394;2022-10-31T02:29:43;3.67;;;3.38;;
43560;SDS011;32305;46.410;17.394;2022-10-31T02:32:41;3.00;;;2.80;;
43560;SDS011;32305;46.410;17.394;2022-10-31T02:35:34;3.85;;;3.55;;
43560;SDS011;32305;46.410;17.394;2022-10-31T02:41:34;3.83;;;3.42;;
43560;SDS011;32305;46.410;17.394;2022-10-31T02:44:15;2.85;;;2.65;;
43560;SDS011;32305;46.410;17.394;2022-10-31T02:47:08;3.45;;;3.15;;
43560;SDS011;32305;46.410;17.394;2022-10-31T02:49:54;3.35;;;3.05;;
43560;SDS011;32305;46.410;17.394;2022-10-31T02:52:29;3.17;;;2.88;;
43560;SDS011;32305;46.410;17.394;2022-10-31T02:54:58;2.70;;;2.50;;
43560;SDS011;32305;46.410;17.394;2022-10-31T02:57:26;3.50;;;3.20;;
43560;SDS011;32305;46.410;17.394;2022-10-31T03:00:00;3.33;;;3.13;;
43560;SDS011;32305;46.410;17.394;2022-10-31T03:05:37;4.03;;;3.63;;
43560;SDS011;32305;46.410;17.394;2022-10-31T03:11:12;3.30;;;3.00;;
43560;SDS011;32305;46.410;17.394;2022-10-31T03:13:47;3.25;;;3.05;;
43560;SDS011;32305;46.410;17.394;2022-10-31T03:19:16;3.10;;;2.90;;
43560;SDS011;32305;46.410;17.394;2022-10-31T03:22:19;3.13;;;2.92;;
43560;SDS011;32305;46.410;17.394;2022-10-31T03:24:49;2.85;;;2.65;;
43560;SDS011;32305;46.410;17.394;2022-10-31T03:27:19;3.10;;;2.80;;
43560;SDS011;32305;46.410;17.394;2022-10-31T03:29:50;3.30;;;3.00;;
43560;SDS011;32305;46.410;17.394;2022-10-31T03:32:26;2.88;;;2.67;;
43560;SDS011;32305;46.410;17.394;2022-10-31T03:35:03;3.15;;;2.95;;
43560;SDS011;32305;46.410;17.394;2022-10-31T03:37:33;3.17;;;2.85;;
43560;SDS011;32305;46.410;17.394;2022-10-31T03:40:02;3.13;;;2.85;;
43560;SDS011;32305;46.410;17.394;2022-10-31T03:42:33;3.55;;;3.25;;
43560;SDS011;32305;46.410;17.394;2022-10-31T03:45:07;3.45;;;3.15;;
43560;SDS011;32305;46.410;17.394;2022-10-31T03:47:51;3.33;;;3.08;;
43560;SDS011;32305;46.410;17.394;2022-10-31T03:50:20;2.53;;;2.33;;
43560;SDS011;32305;46.410;17.394;2022-10-31T03:52:54;2.83;;;2.63;;
43560;SDS011;32305;46.410;17.394;2022-10-31T03:55:27;3.08;;;2.78;;
43560;SDS011;32305;46.410;17.394;2022-10-31T03:57:58;3.30;;;3.00;;
43560;SDS011;32305;46.410;17.394;2022-10-31T04:00:31;3.10;;;2.90;;
43560;SDS011;32305;46.410;17.394;2022-10-31T04:03:02;3.30;;;3.00;;
43560;SDS011;32305;46.410;17.394;2022-10-31T04:05:37;3.22;;;3.03;;
43560;SDS011;32305;46.410;17.394;2022-10-31T04:08:07;2.63;;;2.42;;
43560;SDS011;32305;46.410;17.394;2022-10-31T04:10:38;3.83;;;2.97;;
43560;SDS011;32305;46.410;17.394;2022-10-31T04:13:07;3.03;;;2.80;;
43560;SDS011;32305;46.410;17.394;2022-10-31T04:15:38;3.20;;;2.90;;
43560;SDS011;32305;46.410;17.394;2022-10-31T04:18:07;2.97;;;2.67;;
43560;SDS011;32305;46.410;17.394;2022-10-31T04:20:36;2.83;;;2.63;;
43560;SDS011;32305;46.410;17.394;2022-10-31T04:23:05;3.03;;;2.78;;
43560;SDS011;32305;46.410;17.394;2022-10-31T04:25:43;2.75;;;2.55;;
43560;SDS011;32305;46.410;17.394;2022-10-31T04:28:11;2.80;;;2.60;;
43560;SDS011;32305;46.410;17.394;2022-10-31T04:30:38;3.15;;;2.88;;
43560;SDS011;32305;46.410;17.394;2022-10-31T04:33:05;2.72;;;2.55;;
43560;SDS011;32305;46.410;17.394;2022-10-31T04:35:32;3.00;;;2.80;;
43560;SDS011;32305;46.410;17.394;2022-10-31T04:37:59;2.92;;;2.72;;
43560;SDS011;32305;46.410;17.394;2022-10-31T04:40:26;2.90;;;2.70;;
43560;SDS011;32305;46.410;17.394;2022-10-31T04:42:53;2.78;;;2.58;;
43560;SDS011;32305;46.410;17.394;2022-10-31T04:45:20;3.03;;;2.75;;
43560;SDS011;32305;46.410;17.394;2022-10-31T04:47:47;2.85;;;2.65;;
43560;SDS011;32305;46.410;17.394;2022-10-31T04:50:14;3.13;;;2.90;;
43560;SDS011;32305;46.410;17.394;2022-10-31T04:52:42;2.60;;;2.40;;
43560;SDS011;32305;46.410;17.394;2022-10-31T04:55:10;2.70;;;2.50;;
43560;SDS011;32305;46.410;17.394;2022-10-31T04:57:42;2.63;;;2.35;;
43560;SDS011;32305;46.410;17.394;2022-10-31T05:00:11;2.58;;;2.42;;
43560;SDS011;32305;46.410;17.394;2022-10-31T05:02:44;2.40;;;2.20;;
43560;SDS011;32305;46.410;17.394;2022-10-31T05:05:12;3.17;;;2.85;;
43560;SDS011;32305;46.410;17.394;2022-10-31T05:07:41;3.20;;;2.90;;
43560;SDS011;32305;46.410;17.394;2022-10-31T05:10:12;3.00;;;2.80;;
43560;SDS011;32305;46.410;17.394;2022-10-31T05:12:45;2.35;;;2.15;;
43560;SDS011;32305;46.410;17.394;2022-10-31T05:15:14;2.85;;;2.65;;
43560;SDS011;32305;46.410;17.394;2022-10-31T05:17:42;2.75;;;2.55;;
43560;SDS011;32305;46.410;17.394;2022-10-31T05:20:10;2.70;;;2.50;;
43560;SDS011;32305;46.410;17.394;2022-10-31T05:22:41;2.67;;;2.47;;
43560;SDS011;32305;46.410;17.394;2022-10-31T05:25:10;2.85;;;2.65;;
43560;SDS011;32305;46.410;17.394;2022-10-31T05:27:41;2.95;;;2.75;;
43560;SDS011;32305;46.410;17.394;2022-10-31T05:30:10;2.40;;;2.20;;
43560;SDS011;32305;46.410;17.394;2022-10-31T05:32:43;2.70;;;2.50;;
43560;SDS011;32305;46.410;17.394;2022-10-31T05:35:15;2.80;;;2.60;;
43560;SDS011;32305;46.410;17.394;2022-10-31T05:37:44;3.45;;;3.13;;
43560;SDS011;32305;46.410;17.394;2022-10-31T05:40:12;2.90;;;2.70;;
43560;SDS011;32305;46.410;17.394;2022-10-31T05:42:41;3.08;;;2.80;;
43560;SDS011;32305;46.410;17.394;2022-10-31T05:45:09;2.92;;;2.72;;
43560;SDS011;32305;46.410;17.394;2022-10-31T05:47:39;3.50;;;3.20;;
43560;SDS011;32305;46.410;17.394;2022-10-31T05:50:06;2.55;;;2.40;;
43560;SDS011;32305;46.410;17.394;2022-10-31T05:52:34;2.95;;;2.75;;
43560;SDS011;32305;46.410;17.394;2022-10-31T05:55:02;3.10;;;2.85;;
43560;SDS011;32305;46.410;17.394;2022-10-31T05:57:31;2.83;;;2.63;;
43560;SDS011;32305;46.410;17.394;2022-10-31T05:59:58;3.22;;;3.03;;
43560;SDS011;32305;46.410;17.394;2022-10-31T06:02:26;2.95;;;2.75;;
43560;SDS011;32305;46.410;17.394;2022-10-31T06:04:53;3.20;;;2.95;;
43560;SDS011;32305;46.410;17.394;2022-10-31T06:07:20;2.78;;;2.58;;
43560;SDS011;32305;46.410;17.394;2022-10-31T06:09:47;3.30;;;2.92;;
43560;SDS011;32305;46.410;17.394;2022-10-31T06:12:14;3.60;;;3.40;;
43560;SDS011;32305;46.410;17.394;2022-10-31T06:14:41;3.47;;;3.28;;
43560;SDS011;32305;46.410;17.394;2022-10-31T06:17:08;3.17;;;2.90;;
43560;SDS011;32305;46.410;17.394;2022-10-31T06:19:35;2.58;;;2.45;;
43560;SDS011;32305;46.410;17.394;2022-10-31T06:22:02;3.47;;;3.17;;
43560;SDS011;32305;46.410;17.394;2022-10-31T06:24:29;3.05;;;2.85;;
43560;SDS011;32305;46.410;17.394;2022-10-31T06:26:56;2.85;;;2.65;;
43560;SDS011;32305;46.410;17.394;2022-10-31T06:29:23;3.40;;;3.17;;
43560;SDS011;32305;46.410;17.394;2022-10-31T06:31:51;2.65;;;2.47;;
43560;SDS011;32305;46.410;17.394;2022-10-31T06:34:18;2.72;;;2.53;;
43560;SDS011;32305;46.410;17.394;2022-10-31T06:36:46;2.70;;;2.50;;
43560;SDS011;32305;46.410;17.394;2022-10-31T06:39:13;3.28;;;3.03;;
43560;SDS011;32305;46.410;17.394;2022-10-31T06:41:40;2.20;;;2.10;;
43560;SDS011;32305;46.410;17.394;2022-10-31T06:44:07;3.42;;;3.17;;
43560;SDS011;32305;46.410;17.394;2022-10-31T06:46:35;3.17;;;2.97;;
43560;SDS011;32305;46.410;17.394;2022-10-31T06:49:02;3.05;;;2.85;;
43560;SDS011;32305;46.410;17.394;2022-10-31T06:51:29;2.95;;;2.75;;
43560;SDS011;32305;46.410;17.394;2022-10-31T06:53:56;3.53;;;3.22;;
43560;SDS011;32305;46.410;17.394;2022-10-31T06:56:23;3.38;;;2.90;;
43560;SDS011;32305;46.410;17.394;2022-10-31T06:58:50;2.88;;;2.67;;
43560;SDS011;32305;46.410;17.394;2022-10-31T07:01:17;3.20;;;3.00;;
43560;SDS011;32305;46.410;17.394;2022-10-31T07:03:44;3.08;;;2.88;;
43560;SDS011;32305;46.410;17.394;2022-10-31T07:06:11;3.03;;;2.83;;
43560;SDS011;32305;46.410;17.394;2022-10-31T07:08:38;3.03;;;2.83;;
43560;SDS011;32305;46.410;17.394;2022-10-31T07:11:05;3.28;;;3.08;;
43560;SDS011;32305;46.410;17.394;2022-10-31T07:13:32;3.40;;;3.17;;
43560;SDS011;32305;46.410;17.394;2022-10-31T07:16:00;3.50;;;3.30;;
43560;SDS011;32305;46.410;17.394;2022-10-31T07:18:28;3.70;;;3.45;;
43560;SDS011;32305;46.410;17.394;2022-10-31T07:20:56;3.00;;;2.80;;
43560;SDS011;32305;46.410;17.394;2022-10-31T07:23:23;3.30;;;3.00;;
43560;SDS011;32305;46.410;17.394;2022-10-31T07:25:54;3.60;;;3.30;;
43560;SDS011;32305;46.410;17.394;2022-10-31T07:28:23;3.08;;;2.78;;
43560;SDS011;32305;46.410;17.394;2022-10-31T07:30:54;2.90;;;2.70;;
43560;SDS011;32305;46.410;17.394;2022-10-31T07:33:23;3.03;;;2.83;;
43560;SDS011;32305;46.410;17.394;2022-10-31T07:35:52;2.90;;;2.70;;
43560;SDS011;32305;46.410;17.394;2022-10-31T07:38:20;3.20;;;3.00;;
43560;SDS011;32305;46.410;17.394;2022-10-31T07:40:49;3.60;;;3.30;;
43560;SDS011;32305;46.410;17.394;2022-10-31T07:43:18;3.10;;;2.90;;
43560;SDS011;32305;46.410;17.394;2022-10-31T07:45:52;3.55;;;3.25;;
43560;SDS011;32305;46.410;17.394;2022-10-31T07:48:20;2.97;;;2.78;;
43560;SDS011;32305;46.410;17.394;2022-10-31T07:50:47;3.60;;;3.30;;
43560;SDS011;32305;46.410;17.394;2022-10-31T07:53:14;3.42;;;3.20;;
43560;SDS011;32305;46.410;17.394;2022-10-31T07:55:42;3.30;;;3.10;;
43560;SDS011;32305;46.410;17.394;2022-10-31T07:58:10;3.55;;;3.25;;
43560;SDS011;32305;46.410;17.394;2022-10-31T08:00:39;3.70;;;3.40;;
43560;SDS011;32305;46.410;17.394;2022-10-31T08:03:12;3.80;;;3.50;;
43560;SDS011;32305;46.410;17.394;2022-10-31T08:05:40;3.92;;;3.45;;
43560;SDS011;32305;46.410;17.394;2022-10-31T08:08:08;3.33;;;3.00;;
43560;SDS011;32305;46.410;17.394;2022-10-31T08:10:35;4.28;;;3.90;;
43560;SDS011;32305;46.410;17.394;2022-10-31T08:13:07;4.03;;;3.72;;
43560;SDS011;32305;46.410;17.394;2022-10-31T08:15:39;4.18;;;3.58;;
43560;SDS011;32305;46.410;17.394;2022-10-31T08:18:12;3.55;;;3.25;;
43560;SDS011;32305;46.410;17.394;2022-10-31T08:20:40;4.30;;;3.90;;
43560;SDS011;32305;46.410;17.394;2022-10-31T08:23:08;4.70;;;4.18;;
43560;SDS011;32305;46.410;17.394;2022-10-31T08:25:36;4.53;;;4.13;;
43560;SDS011;32305;46.410;17.394;2022-10-31T08:28:05;4.65;;;4.15;;
43560;SDS011;32305;46.410;17.394;2022-10-31T08:30:33;4.28;;;3.90;;
43560;SDS011;32305;46.410;17.394;2022-10-31T08:33:09;4.80;;;4.40;;
43560;SDS011;32305;46.410;17.394;2022-10-31T08:35:37;4.28;;;3.97;;
43560;SDS011;32305;46.410;17.394;2022-10-31T08:38:04;4.90;;;4.50;;
43560;SDS011;32305;46.410;17.394;2022-10-31T08:40:32;4.38;;;4.00;;
43560;SDS011;32305;46.410;17.394;2022-10-31T08:43:00;4.78;;;4.00;;
43560;SDS011;32305;46.410;17.394;2022-10-31T08:45:29;4.60;;;4.20;;
43560;SDS011;32305;46.410;17.394;2022-10-31T08:47:58;5.75;;;4.50;;
43560;SDS011;32305;46.410;17.394;2022-10-31T08:50:27;4.90;;;4.50;;
43560;SDS011;32305;46.410;17.394;2022-10-31T08:53:00;4.93;;;4.45;;
43560;SDS011;32305;46.410;17.394;2022-10-31T08:55:32;4.68;;;4.05;;
43560;SDS011;32305;46.410;17.394;2022-10-31T08:58:01;4.85;;;4.40;;
43560;SDS011;32305;46.410;17.394;2022-10-31T09:00:30;5.40;;;4.57;;
43560;SDS011;32305;46.410;17.394;2022-10-31T09:02:58;5.72;;;4.63;;
43560;SDS011;32305;46.410;17.394;2022-10-31T09:05:26;4.75;;;4.30;;
43560;SDS011;32305;46.410;17.394;2022-10-31T09:07:57;4.60;;;4.20;;
43560;SDS011;32305;46.410;17.394;2022-10-31T09:10:26;5.32;;;4.57;;
43560;SDS011;32305;46.410;17.394;2022-10-31T09:12:55;5.68;;;4.97;;
43560;SDS011;32305;46.410;17.394;2022-10-31T09:15:24;5.78;;;5.25;;
43560;SDS011;32305;46.410;17.394;2022-10-31T09:17:52;5.75;;;5.05;;
43560;SDS011;32305;46.410;17.394;2022-10-31T09:20:20;5.25;;;4.72;;
43560;SDS011;32305;46.410;17.394;2022-10-31T09:22:47;6.43;;;5.10;;
43560;SDS011;32305;46.410;17.394;2022-10-31T09:25:21;5.43;;;4.93;;
43560;SDS011;32305;46.410;17.394;2022-10-31T09:27:48;6.10;;;5.50;;
43560;SDS011;32305;46.410;17.394;2022-10-31T09:30:15;6.00;;;5.40;;
43560;SDS011;32305;46.410;17.394;2022-10-31T09:32:42;5.32;;;4.82;;
43560;SDS011;32305;46.410;17.394;2022-10-31T09:35:09;5.53;;;5.03;;
43560;SDS011;32305;46.410;17.394;2022-10-31T09:37:37;5.95;;;5.35;;
43560;SDS011;32305;46.410;17.394;2022-10-31T09:40:04;6.20;;;5.45;;
43560;SDS011;32305;46.410;17.394;2022-10-31T09:45:40;5.93;;;5.30;;
43560;SDS011;32305;46.410;17.394;2022-10-31T09:48:29;6.03;;;5.38;;
43560;SDS011;32305;46.410;17.394;2022-10-31T09:51:10;6.38;;;5.55;;
43560;SDS011;32305;46.410;17.394;2022-10-31T09:53:43;6.57;;;5.78;;
43560;SDS011;32305;46.410;17.394;2022-10-31T09:56:25;6.38;;;5.60;;
43560;SDS011;32305;46.410;17.394;2022-10-31T09:58:55;6.25;;;5.63;;
43560;SDS011;32305;46.410;17.394;2022-10-31T10:01:32;6.70;;;6.10;;
43560;SDS011;32305;46.410;17.394;2022-10-31T10:04:24;6.07;;;5.55;;
43560;SDS011;32305;46.410;17.394;2022-10-31T10:07:17;10.02;;;6.28;;
43560;SDS011;32305;46.410;17.394;2022-10-31T10:10:13;6.05;;;5.50;;
43560;SDS011;32305;46.410;17.394;2022-10-31T10:16:04;6.93;;;6.22;;
43560;SDS011;32305;46.410;17.394;2022-10-31T10:24:42;8.10;;;6.63;;
43560;SDS011;32305;46.410;17.394;2022-10-31T10:27:39;7.13;;;6.38;;
43560;SDS011;32305;46.410;17.394;2022-10-31T10:30:15;5.88;;;5.30;;
43560;SDS011;32305;46.410;17.394;2022-10-31T10:32:57;6.63;;;5.95;;
43560;SDS011;32305;46.410;17.394;2022-10-31T10:35:31;6.82;;;5.80;;
43560;SDS011;32305;46.410;17.394;2022-10-31T10:38:16;6.22;;;5.63;;
43560;SDS011;32305;46.410;17.394;2022-10-31T10:41:01;8.65;;;6.05;;
43560;SDS011;32305;46.410;17.394;2022-10-31T10:43:33;7.35;;;6.47;;
43560;SDS011;32305;46.410;17.394;2022-10-31T10:46:13;6.65;;;6.03;;
43560;SDS011;32305;46.410;17.394;2022-10-31T10:49:10;7.03;;;6.30;;
43560;SDS011;32305;46.410;17.394;2022-10-31T10:52:00;7.00;;;6.13;;
43560;SDS011;32305;46.410;17.394;2022-10-31T10:58:03;7.03;;;6.13;;
43560;SDS011;32305;46.410;17.394;2022-10-31T11:00:38;7.55;;;6.00;;
43560;SDS011;32305;46.410;17.394;2022-10-31T11:03:07;6.57;;;5.82;;
43560;SDS011;32305;46.410;17.394;2022-10-31T11:05:40;6.35;;;5.57;;
43560;SDS011;32305;46.410;17.394;2022-10-31T11:08:23;6.97;;;6.28;;
43560;SDS011;32305;46.410;17.394;2022-10-31T11:10:58;7.32;;;6.38;;
43560;SDS011;32305;46.410;17.394;2022-10-31T11:13:33;7.18;;;6.47;;
43560;SDS011;32305;46.410;17.394;2022-10-31T11:16:03;8.02;;;6.78;;
43560;SDS011;32305;46.410;17.394;2022-10-31T11:18:34;7.53;;;6.43;;
43560;SDS011;32305;46.410;17.394;2022-10-31T11:21:05;7.32;;;6.45;;
43560;SDS011;32305;46.410;17.394;2022-10-31T11:23:45;7.72;;;6.85;;
43560;SDS011;32305;46.410;17.394;2022-10-31T11:26:19;7.07;;;6.32;;
43560;SDS011;32305;46.410;17.394;2022-10-31T11:28:57;6.63;;;5.97;;
43560;SDS011;32305;46.410;17.394;2022-10-31T11:31:26;7.82;;;6.47;;
43560;SDS011;32305;46.410;17.394;2022-10-31T11:33:57;6.95;;;6.25;;
43560;SDS011;32305;46.410;17.394;2022-10-31T11:36:28;7.10;;;6.40;;
43560;SDS011;32305;46.410;17.394;2022-10-31T11:38:57;7.65;;;6.85;;
43560;SDS011;32305;46.410;17.394;2022-10-31T11:41:29;6.82;;;6.13;;
43560;SDS011;32305;46.410;17.394;2022-10-31T11:44:04;7.22;;;6.30;;
43560;SDS011;32305;46.410;17.394;2022-10-31T11:46:41;7.10;;;6.40;;
43560;SDS011;32305;46.410;17.394;2022-10-31T11:49:19;7.70;;;6.90;;
43560;SDS011;32305;46.410;17.394;2022-10-31T11:54:25;7.32;;;6.63;;
43560;SDS011;32305;46.410;17.394;2022-10-31T11:56:58;8.63;;;7.40;;
43560;SDS011;32305;46.410;17.394;2022-10-31T11:59:28;7.50;;;6.70;;
43560;SDS011;32305;46.410;17.394;2022-10-31T12:01:57;9.15;;;7.55;;
43560;SDS011;32305;46.410;17.394;2022-10-31T12:04:44;8.03;;;7.23;;
43560;SDS011;32305;46.410;17.394;2022-10-31T12:07:15;7.30;;;6.50;;
43560;SDS011;32305;46.410;17.394;2022-10-31T12:09:42;6.97;;;6.25;;
43560;SDS011;32305;46.410;17.394;2022-10-31T12:12:21;7.80;;;6.63;;
43560;SDS011;32305;46.410;17.394;2022-10-31T12:18:15;7.55;;;6.85;;
43560;SDS011;32305;46.410;17.394;2022-10-31T12:21:03;9.20;;;7.55;;
43560;SDS011;32305;46.410;17.394;2022-10-31T12:23:52;8.27;;;7.22;;
43560;SDS011;32305;46.410;17.394;2022-10-31T12:32:31;8.05;;;7.10;;
43560;SDS011;32305;46.410;17.394;2022-10-31T12:35:25;8.00;;;7.03;;
43560;SDS011;32305;46.410;17.394;2022-10-31T12:38:05;8.63;;;7.72;;
43560;SDS011;32305;46.410;17.394;2022-10-31T12:41:03;7.97;;;7.05;;
43560;SDS011;32305;46.410;17.394;2022-10-31T12:43:46;7.40;;;6.70;;
43560;SDS011;32305;46.410;17.394;2022-10-31T12:46:33;7.68;;;6.90;;
43560;SDS011;32305;46.410;17.394;2022-10-31T12:49:37;8.02;;;7.13;;
43560;SDS011;32305;46.410;17.394;2022-10-31T12:52:39;7.80;;;7.00;;
43560;SDS011;32305;46.410;17.394;2022-10-31T12:55:37;8.05;;;7.22;;
43560;SDS011;32305;46.410;17.394;2022-10-31T12:58:34;7.95;;;6.82;;
43560;SDS011;32305;46.410;17.394;2022-10-31T13:01:14;8.07;;;7.28;;
43560;SDS011;32305;46.410;17.394;2022-10-31T13:03:55;8.30;;;7.40;;
43560;SDS011;32305;46.410;17.394;2022-10-31T13:06:31;7.22;;;6.53;;
43560;SDS011;32305;46.410;17.394;2022-10-31T13:09:10;7.45;;;6.75;;
43560;SDS011;32305;46.410;17.394;2022-10-31T13:11:55;8.02;;;7.22;;
43560;SDS011;32305;46.410;17.394;2022-10-31T13:14:32;8.00;;;7.18;;
43560;SDS011;32305;46.410;17.394;2022-10-31T13:17:03;7.75;;;7.05;;
43560;SDS011;32305;46.410;17.394;2022-10-31T13:19:34;7.43;;;6.60;;
43560;SDS011;32305;46.410;17.394;2022-10-31T13:22:09;7.55;;;6.75;;
43560;SDS011;32305;46.410;17.394;2022-10-31T13:24:54;7.63;;;6.85;;
43560;SDS011;32305;46.410;17.394;2022-10-31T13:27:43;10.52;;;7.03;;
43560;SDS011;32305;46.410;17.394;2022-10-31T13:30:21;8.75;;;7.90;;
43560;SDS011;32305;46.410;17.394;2022-10-31T13:32:55;9.07;;;7.65;;
43560;SDS011;32305;46.410;17.394;2022-10-31T13:38:45;8.32;;;7.43;;
43560;SDS011;32305;46.410;17.394;2022-10-31T13:41:26;8.57;;;7.50;;
43560;SDS011;32305;46.410;17.394;2022-10-31T13:44:15;8.93;;;7.80;;
43560;SDS011;32305;46.410;17.394;2022-10-31T13:46:48;9.32;;;7.57;;
43560;SDS011;32305;46.410;17.394;2022-10-31T13:52:07;8.30;;;7.45;;
43560;SDS011;32305;46.410;17.394;2022-10-31T13:54:44;8.82;;;7.65;;
43560;SDS011;32305;46.410;17.394;2022-10-31T13:57:16;10.30;;;7.80;;
43560;SDS011;32305;46.410;17.394;2022-10-31T14:00:01;8.80;;;7.65;;
43560;SDS011;32305;46.410;17.394;2022-10-31T14:02:33;8.18;;;6.93;;
43560;SDS011;32305;46.410;17.394;2022-10-31T14:05:06;9.40;;;7.50;;
43560;SDS011;32305;46.410;17.394;2022-10-31T14:07:48;8.32;;;7.47;;
43560;SDS011;32305;46.410;17.394;2022-10-31T14:10:26;8.70;;;7.80;;
43560;SDS011;32305;46.410;17.394;2022-10-31T14:13:13;8.90;;;7.78;;
43560;SDS011;32305;46.410;17.394;2022-10-31T14:15:52;8.95;;;7.45;;
43560;SDS011;32305;46.410;17.394;2022-10-31T14:18:35;7.90;;;7.15;;
43560;SDS011;32305;46.410;17.394;2022-10-31T14:23:54;8.63;;;7.80;;
43560;SDS011;32305;46.410;17.394;2022-10-31T14:26:32;8.43;;;7.22;;
43560;SDS011;32305;46.410;17.394;2022-10-31T14:29:19;10.18;;;8.43;;
43560;SDS011;32305;46.410;17.394;2022-10-31T14:31:55;8.10;;;7.25;;
43560;SDS011;32305;46.410;17.394;2022-10-31T14:34:28;8.57;;;7.78;;
43560;SDS011;32305;46.410;17.394;2022-10-31T14:37:14;8.43;;;7.18;;
43560;SDS011;32305;46.410;17.394;2022-10-31T14:43:12;9.27;;;7.85;;
43560;SDS011;32305;46.410;17.394;2022-10-31T14:46:02;9.90;;;8.13;;
43560;SDS011;32305;46.410;17.394;2022-10-31T14:51:46;9.00;;;7.82;;
43560;SDS011;32305;46.410;17.394;2022-10-31T14:54:15;9.73;;;8.25;;
43560;SDS011;32305;46.410;17.394;2022-10-31T14:56:48;9.00;;;7.90;;
43560;SDS011;32305;46.410;17.394;2022-10-31T14:59:19;10.27;;;8.98;;
43560;SDS011;32305;46.410;17.394;2022-10-31T15:01:56;12.20;;;8.32;;
43560;SDS011;32305;46.410;17.394;2022-10-31T15:04:27;9.15;;;8.13;;
43560;SDS011;32305;46.410;17.394;2022-10-31T15:07:05;9.50;;;7.43;;
43560;SDS011;32305;46.410;17.394;2022-10-31T15:09:40;8.52;;;7.35;;
43560;SDS011;32305;46.410;17.394;2022-10-31T15:12:21;7.50;;;6.75;;
43560;SDS011;32305;46.410;17.394;2022-10-31T15:15:13;12.27;;;7.82;;
43560;SDS011;32305;46.410;17.394;2022-10-31T15:17:43;7.95;;;7.15;;
43560;SDS011;32305;46.410;17.394;2022-10-31T15:20:19;7.95;;;7.10;;
43560;SDS011;32305;46.410;17.394;2022-10-31T15:22:49;8.00;;;7.15;;
43560;SDS011;32305;46.410;17.394;2022-10-31T15:25:18;9.27;;;7.32;;
43560;SDS011;32305;46.410;17.394;2022-10-31T15:27:49;7.30;;;6.60;;
43560;SDS011;32305;46.410;17.394;2022-10-31T15:30:18;8.60;;;7.32;;
43560;SDS011;32305;46.410;17.394;2022-10-31T15:32:50;7.78;;;6.97;;
43560;SDS011;32305;46.410;17.394;2022-10-31T15:35:26;9.10;;;7.65;;
43560;SDS011;32305;46.410;17.394;2022-10-31T15:37:56;7.90;;;7.10;;
43560;SDS011;32305;46.410;17.394;2022-10-31T15:40:25;8.23;;;7.25;;
43560;SDS011;32305;46.410;17.394;2022-10-31T15:42:58;7.88;;;6.78;;
43560;SDS011;32305;46.410;17.394;2022-10-31T15:45:28;7.25;;;6.28;;
43560;SDS011;32305;46.410;17.394;2022-10-31T15:47:58;7.43;;;6.63;;
43560;SDS011;32305;46.410;17.394;2022-10-31T15:50:40;7.78;;;7.07;;
43560;SDS011;32305;46.410;17.394;2022-10-31T15:53:19;7.88;;;6.93;;
43560;SDS011;32305;46.410;17.394;2022-10-31T15:55:51;8.93;;;7.03;;
43560;SDS011;32305;46.410;17.394;2022-10-31T15:58:21;8.68;;;7.20;;
43560;SDS011;32305;46.410;17.394;2022-10-31T16:01:00;7.70;;;7.00;;
43560;SDS011;32305;46.410;17.394;2022-10-31T16:03:30;9.77;;;6.85;;
43560;SDS011;32305;46.410;17.394;2022-10-31T16:06:00;7.05;;;6.20;;